Time;durP1;ratioP1;P1;durP2;ratioP2;P2;SDS_P1;SDS_P2;PMS_P1;PMS_P2;Temp;Humidity;BMP_temperature;BMP_pressure;BME280_temperature;BME280_humidity;BME280_pressure;Samples;Min_cycle;Max_cycle;Signal;HPM_P1;HPM_P2
2023/09/09 00:01:32;;;;;;;9.63;5.40;;;;;;;19.36;85.76;95602.13;5059176;28;20236;-79
2023/09/09 00:03:58;;;;;;;10.23;5.57;;;;;;;19.32;86.03;95594.84;5059565;28;20221;-81
2023/09/09 00:06:23;;;;;;;8.53;5.20;;;;;;;19.28;85.96;95596.34;5041656;28;20829;-82
2023/09/09 00:08:49;;;;;;;11.17;5.40;;;;;;;19.20;86.98;95602.06;5051480;28;20232;-81
2023/09/09 00:11:17;;;;;;;15.90;5.80;;;;;;;19.22;87.26;95599.97;5080906;28;20233;-82
2023/09/09 00:13:45;;;;;;;8.23;5.37;;;;;;;19.22;86.93;95602.63;5064508;28;20236;-80
2023/09/09 00:16:11;;;;;;;13.40;5.90;;;;;;;19.36;86.65;95598.66;5039365;28;20374;-80
2023/09/09 00:18:36;;;;;;;10.07;5.63;;;;;;;19.33;86.68;95585.81;5056247;28;20726;-79
2023/09/09 00:21:03;;;;;;;12.57;6.07;;;;;;;19.30;86.89;95592.41;5051167;28;20286;-80
2023/09/09 00:23:28;;;;;;;11.47;5.80;;;;;;;19.20;87.72;95591.44;5065488;27;20222;-81
2023/09/09 00:25:54;;;;;;;9.20;5.80;;;;;;;19.15;88.03;95586.84;5069261;28;20223;-80
2023/09/09 00:28:20;;;;;;;12.33;5.50;;;;;;;19.20;87.87;95588.78;5069338;28;20319;-80
2023/09/09 00:30:46;;;;;;;10.70;5.63;;;;;;;19.11;88.35;95583.03;5067664;28;20232;-80
2023/09/09 00:33:11;;;;;;;13.33;6.07;;;;;;;19.13;88.47;95588.91;5036642;28;20236;-80
2023/09/09 00:35:40;;;;;;;9.87;5.80;;;;;;;19.14;88.44;95581.75;5054511;28;20240;-81
2023/09/09 00:38:06;;;;;;;12.20;5.90;;;;;;;19.13;88.36;95577.50;5054940;28;21198;-80
2023/09/09 00:40:32;;;;;;;10.63;5.77;;;;;;;19.04;89.24;95570.94;5040660;28;20224;-80
2023/09/09 00:42:58;;;;;;;9.80;5.70;;;;;;;18.98;89.72;95571.88;5061418;28;20282;-81
2023/09/09 00:45:23;;;;;;;10.93;5.63;;;;;;;18.98;89.46;95578.00;5052766;28;20754;-80
2023/09/09 00:47:49;;;;;;;9.70;5.63;;;;;;;18.98;89.97;95577.19;5050993;28;20238;-80
2023/09/09 00:50:14;;;;;;;13.47;5.83;;;;;;;19.00;89.90;95577.75;5040386;28;20224;-80
2023/09/09 00:52:40;;;;;;;11.27;5.23;;;;;;;19.00;89.85;95578.56;5076769;28;20280;-81
2023/09/09 00:55:07;;;;;;;10.60;5.57;;;;;;;19.12;89.58;95575.88;5062203;28;20900;-80
2023/09/09 00:57:33;;;;;;;13.10;5.70;;;;;;;19.17;89.06;95575.97;5049949;28;20224;-80
2023/09/09 01:00:00;;;;;;;14.57;5.90;;;;;;;19.01;90.01;95574.06;5039690;28;20236;-80
2023/09/09 01:02:25;;;;;;;9.53;5.73;;;;;;;18.99;89.89;95574.28;5065573;28;20230;-80
2023/09/09 01:04:50;;;;;;;11.23;5.47;;;;;;;18.97;90.05;95570.25;5042386;28;20240;-81
2023/09/09 01:07:16;;;;;;;9.83;5.40;;;;;;;19.01;89.99;95569.53;5070089;28;20228;-80
2023/09/09 01:09:41;;;;;;;9.70;5.40;;;;;;;18.94;90.28;95566.22;5067503;28;20233;-74
2023/09/09 01:12:11;;;;;;;10.93;5.80;;;;;;;18.95;90.31;95569.69;5071187;28;20228;-75
2023/09/09 01:14:38;;;;;;;10.90;5.60;;;;;;;18.91;90.81;95565.91;5039615;28;20237;-75
2023/09/09 01:17:03;;;;;;;10.43;5.57;;;;;;;18.93;90.40;95561.16;5031599;28;20314;-74
2023/09/09 01:19:31;;;;;;;10.93;5.57;;;;;;;18.90;90.65;95565.09;5053031;28;20285;-75
2023/09/09 01:22:02;;;;;;;10.33;5.70;;;;;;;18.71;91.72;95561.78;5054667;28;20255;-74
2023/09/09 01:24:28;;;;;;;8.80;5.30;;;;;;;18.66;92.04;95559.03;5051432;28;20701;-74
2023/09/09 01:26:53;;;;;;;11.07;5.90;;;;;;;18.73;91.37;95567.66;5049819;28;20310;-75
2023/09/09 01:29:19;;;;;;;9.67;5.30;;;;;;;18.81;91.49;95569.16;5062674;28;20218;-75
2023/09/09 01:31:44;;;;;;;10.90;5.60;;;;;;;18.81;91.34;95566.50;5070768;28;20212;-74
2023/09/09 01:34:10;;;;;;;13.10;5.90;;;;;;;18.71;91.34;95561.78;5056533;28;20228;-75
2023/09/09 01:36:35;;;;;;;9.67;5.30;;;;;;;18.60;92.23;95559.16;5067439;28;20220;-74
2023/09/09 01:39:01;;;;;;;11.17;5.47;;;;;;;18.44;93.36;95549.22;5034651;28;20233;-74
2023/09/09 01:41:26;;;;;;;8.97;5.60;;;;;;;18.55;92.84;95556.41;5037861;28;20302;-74
2023/09/09 01:43:52;;;;;;;10.17;5.50;;;;;;;18.63;92.30;95559.50;5065529;28;20236;-75
2023/09/09 01:46:18;;;;;;;10.00;5.60;;;;;;;18.61;92.56;95560.78;5049553;28;20251;-75
2023/09/09 01:48:43;;;;;;;8.50;5.77;;;;;;;18.59;92.72;95558.38;5052546;28;20248;-74
2023/09/09 01:51:08;;;;;;;8.47;5.50;;;;;;;18.64;92.30;95552.34;5050436;28;20221;-75
2023/09/09 01:53:35;;;;;;;10.67;5.60;;;;;;;18.63;92.52;95556.84;5040457;28;20282;-75
2023/09/09 01:56:00;;;;;;;9.80;5.63;;;;;;;18.52;93.20;95557.69;5064201;28;20230;-74
2023/09/09 01:58:26;;;;;;;14.17;5.70;;;;;;;18.54;92.91;95554.78;5067805;28;21010;-74
2023/09/09 02:00:51;;;;;;;12.10;5.50;;;;;;;18.40;93.35;95553.38;5035907;28;20235;-74
2023/09/09 02:03:17;;;;;;;9.63;5.60;;;;;;;18.56;92.97;95558.00;5068434;28;20228;-74
2023/09/09 02:05:43;;;;;;;10.10;5.57;;;;;;;18.43;93.51;95550.28;5049710;28;20278;-74
2023/09/09 02:08:08;;;;;;;9.07;5.83;;;;;;;18.48;93.31;95556.53;5069360;28;20229;-74
2023/09/09 02:10:34;;;;;;;10.50;5.90;;;;;;;18.40;93.89;95550.75;5060357;28;20804;-75
2023/09/09 02:12:59;;;;;;;9.40;6.20;;;;;;;18.57;93.39;95549.03;5047787;28;20223;-74
2023/09/09 02:15:25;;;;;;;10.93;6.17;;;;;;;18.56;93.32;95550.88;5040543;28;20228;-74
2023/09/09 02:17:50;;;;;;;15.20;6.40;;;;;;;18.34;93.88;95547.16;5045094;28;20237;-74
2023/09/09 02:20:15;;;;;;;11.83;6.50;;;;;;;18.42;93.58;95544.16;5062488;28;20232;-74
2023/09/09 02:22:41;;;;;;;14.17;6.50;;;;;;;18.36;93.28;95545.13;5067677;28;20220;-73
2023/09/09 02:25:08;;;;;;;8.97;6.00;;;;;;;18.15;94.05;95546.50;5073272;28;20224;-74
2023/09/09 02:27:33;;;;;;;10.23;6.30;;;;;;;18.09;95.13;95547.44;5065548;28;20245;-74
2023/09/09 02:30:00;;;;;;;12.70;6.27;;;;;;;18.03;96.02;95547.56;5053266;28;20287;-74
2023/09/09 02:32:25;;;;;;;10.77;7.00;;;;;;;18.01;95.82;95547.75;5068578;28;20229;-74
2023/09/09 02:34:50;;;;;;;10.87;6.23;;;;;;;18.05;96.14;95551.59;5037736;28;20239;-74
2023/09/09 02:37:18;;;;;;;11.97;6.80;;;;;;;17.93;96.49;95542.00;5059049;28;20234;-74
2023/09/09 02:39:49;;;;;;;14.33;6.80;;;;;;;17.98;96.03;95550.84;5032005;28;20237;-74
2023/09/09 02:42:15;;;;;;;14.10;6.90;;;;;;;17.98;95.97;95550.06;5035915;28;20230;-74
2023/09/09 02:44:44;;;;;;;12.07;6.63;;;;;;;17.86;96.50;95552.72;5069600;28;20228;-75
2023/09/09 02:47:10;;;;;;;11.07;6.47;;;;;;;17.70;97.33;95552.56;5058600;28;20231;-73
2023/09/09 02:49:36;;;;;;;13.10;6.03;;;;;;;17.55;98.34;95558.31;5051325;28;20338;-75
2023/09/09 02:52:01;;;;;;;10.10;6.30;;;;;;;17.60;98.16;95558.41;5052707;28;20654;-74
2023/09/09 02:54:27;;;;;;;12.60;6.63;;;;;;;17.52;98.84;95550.81;5052214;28;20220;-74
2023/09/09 02:56:52;;;;;;;10.77;6.23;;;;;;;17.71;98.13;95551.53;5058139;28;20303;-74
2023/09/09 02:59:17;;;;;;;13.70;6.53;;;;;;;17.84;97.28;95548.69;5057219;28;20258;-74
2023/09/09 03:01:43;;;;;;;9.83;6.30;;;;;;;17.86;97.26;95541.31;5057496;28;20237;-75
2023/09/09 03:04:09;;;;;;;9.80;6.47;;;;;;;17.96;96.57;95545.00;5055769;28;20233;-75
2023/09/09 03:06:34;;;;;;;15.20;6.40;;;;;;;17.78;97.22;95549.59;5054378;28;20232;-75
2023/09/09 03:09:00;;;;;;;11.77;6.47;;;;;;;17.58;98.32;95549.88;5061065;28;20333;-74
2023/09/09 03:11:26;;;;;;;12.20;6.67;;;;;;;17.40;99.38;95544.66;5053304;28;20702;-75
2023/09/09 03:13:52;;;;;;;14.20;6.30;;;;;;;17.26;100.00;95548.53;5059590;28;20723;-74
2023/09/09 03:16:17;;;;;;;14.33;6.30;;;;;;;17.34;100.00;95550.81;5041801;28;20241;-74
2023/09/09 03:18:43;;;;;;;11.53;6.40;;;;;;;17.36;100.00;95552.22;5067670;28;20228;-74
2023/09/09 03:21:10;;;;;;;10.43;6.10;;;;;;;17.60;98.37;95558.41;5061804;28;20224;-74
2023/09/09 03:23:35;;;;;;;14.10;6.47;;;;;;;17.39;99.01;95553.59;5058387;28;20682;-73
2023/09/09 03:26:01;;;;;;;9.63;6.17;;;;;;;17.09;100.00;95548.34;5046316;28;20236;-73
2023/09/09 03:28:26;;;;;;;9.60;6.10;;;;;;;17.31;100.00;95552.13;5075810;28;20623;-73
2023/09/09 03:30:54;;;;;;;9.50;5.97;;;;;;;17.44;99.13;95553.75;5065342;28;20623;-77
2023/09/09 03:33:19;;;;;;;12.30;6.20;;;;;;;17.32;99.89;95553.72;5078941;28;20232;-76
2023/09/09 03:35:45;;;;;;;9.53;6.47;;;;;;;17.24;100.00;95550.59;5057933;28;20231;-74
2023/09/09 03:38:10;;;;;;;10.13;6.30;;;;;;;17.38;99.38;95552.81;5075039;28;20217;-74
2023/09/09 03:40:36;;;;;;;10.43;6.87;;;;;;;17.21;100.00;95543.91;5079301;28;20232;-74
2023/09/09 03:43:01;;;;;;;11.17;6.80;;;;;;;16.79;100.00;95555.44;5080644;28;20992;-74
2023/09/09 03:45:26;;;;;;;10.13;6.47;;;;;;;16.83;100.00;95540.75;5082353;28;20221;-75
2023/09/09 03:47:52;;;;;;;12.63;7.07;;;;;;;16.93;100.00;95550.81;5060245;28;20295;-72
2023/09/09 03:50:17;;;;;;;12.83;6.60;;;;;;;16.84;100.00;95553.75;5071449;28;20220;-73
2023/09/09 03:52:44;;;;;;;12.73;6.67;;;;;;;16.98;100.00;95554.38;5082915;28;20232;-77
2023/09/09 03:55:09;;;;;;;12.77;6.37;;;;;;;16.83;100.00;95559.25;5074255;28;20308;-76
2023/09/09 03:57:35;;;;;;;10.80;6.63;;;;;;;16.82;100.00;95560.28;5080520;28;20225;-76
2023/09/09 04:00:00;;;;;;;13.67;6.30;;;;;;;17.14;100.00;95559.06;5073817;28;20588;-73
2023/09/09 04:02:26;;;;;;;10.63;6.70;;;;;;;16.94;100.00;95557.69;5083351;28;20240;-73
2023/09/09 04:04:51;;;;;;;13.80;6.90;;;;;;;16.65;100.00;95554.78;5067289;28;20253;-73
2023/09/09 04:07:22;;;;;;;12.73;7.20;;;;;;;16.83;100.00;95559.25;5064294;28;20349;-73
2023/09/09 04:10:04;;;;;;;12.27;6.97;;;;;;;17.08;100.00;95565.22;5078985;28;20232;-74
2023/09/09 04:12:29;;;;;;;12.80;6.70;;;;;;;16.70;100.00;95559.41;5040451;28;20275;-75
2023/09/09 04:14:55;;;;;;;12.17;6.80;;;;;;;16.60;100.00;95561.75;5050281;28;20224;-73
2023/09/09 04:17:20;;;;;;;15.07;6.93;;;;;;;16.61;100.00;95556.25;5090151;28;20227;-74
2023/09/09 04:19:46;;;;;;;11.77;6.70;;;;;;;16.78;100.00;95553.84;5064124;28;20229;-73
2023/09/09 04:22:11;;;;;;;15.13;6.87;;;;;;;16.85;100.00;95559.84;5081299;28;20225;-73
2023/09/09 04:24:37;;;;;;;12.87;6.97;;;;;;;16.81;100.00;95554.19;5062588;28;20306;-74
2023/09/09 04:27:02;;;;;;;11.97;6.80;;;;;;;17.01;100.00;95559.22;5059618;28;20237;-74
2023/09/09 04:29:28;;;;;;;12.77;7.13;;;;;;;16.80;100.00;95565.00;5063526;28;20256;-74
2023/09/09 04:31:53;;;;;;;13.13;6.93;;;;;;;16.74;100.00;95563.25;5037636;28;20229;-74
2023/09/09 04:34:19;;;;;;;13.03;6.57;;;;;;;16.94;100.00;95560.34;5056616;28;20678;-74
2023/09/09 04:36:45;;;;;;;12.53;6.83;;;;;;;16.91;100.00;95561.59;5032198;28;20309;-74
2023/09/09 04:39:13;;;;;;;12.37;7.03;;;;;;;16.88;100.00;95561.25;5051630;28;20229;-74
2023/09/09 04:41:40;;;;;;;13.93;7.03;;;;;;;16.94;100.00;95555.03;5069759;28;20278;-74
2023/09/09 04:44:05;;;;;;;14.33;7.40;;;;;;;17.08;100.00;95557.28;5070738;28;20244;-74
2023/09/09 04:46:31;;;;;;;15.73;7.30;;;;;;;17.18;100.00;95560.22;5049121;28;20307;-74
2023/09/09 04:48:56;;;;;;;15.27;7.07;;;;;;;17.04;100.00;95557.97;5053657;28;20229;-74
2023/09/09 04:51:22;;;;;;;12.17;7.27;;;;;;;17.06;100.00;95556.72;5067689;28;20221;-74
2023/09/09 04:53:47;;;;;;;14.33;7.40;;;;;;;17.09;99.70;95563.41;5069743;28;20255;-74
2023/09/09 04:56:13;;;;;;;16.73;7.20;;;;;;;17.09;99.73;95566.03;5072736;28;20231;-74
2023/09/09 04:58:39;;;;;;;15.60;7.40;;;;;;;17.08;100.00;95562.59;5054901;28;20233;-74
2023/09/09 05:01:04;;;;;;;15.70;7.20;;;;;;;17.19;99.54;95561.84;5065166;28;20232;-73
2023/09/09 05:03:30;;;;;;;12.77;6.93;;;;;;;17.41;97.99;95564.78;5069554;28;20611;-74
2023/09/09 05:05:55;;;;;;;15.43;7.07;;;;;;;17.26;98.69;95565.22;5035724;28;20228;-74
2023/09/09 05:08:21;;;;;;;15.33;7.57;;;;;;;17.20;99.98;95557.34;5069325;28;20635;-75
2023/09/09 05:10:46;;;;;;;14.53;7.20;;;;;;;17.33;98.59;95563.28;5064710;28;20623;-74
2023/09/09 05:13:12;;;;;;;14.83;7.23;;;;;;;17.38;98.07;95559.94;5048230;28;20244;-74
2023/09/09 05:15:38;;;;;;;12.00;7.40;;;;;;;17.42;97.83;95559.28;5041481;28;20556;-74
2023/09/09 05:18:03;;;;;;;15.13;7.30;;;;;;;17.47;97.77;95567.34;5059317;28;20232;-74
2023/09/09 05:20:30;;;;;;;14.47;7.30;;;;;;;17.46;98.84;95559.59;5064690;28;20221;-74
2023/09/09 05:22:55;;;;;;;16.10;7.63;;;;;;;17.32;99.55;95564.28;5036725;28;20732;-74
2023/09/09 05:25:21;;;;;;;14.80;7.43;;;;;;;17.52;99.33;95561.41;5067769;28;20221;-74
2023/09/09 05:27:46;;;;;;;14.47;7.47;;;;;;;17.71;98.42;95556.81;5048811;28;20232;-74
2023/09/09 05:30:12;;;;;;;14.73;7.40;;;;;;;17.71;98.63;95557.63;5036685;28;20314;-74
2023/09/09 05:32:37;;;;;;;12.17;7.10;;;;;;;17.66;99.60;95552.22;5050990;28;20251;-74
2023/09/09 05:35:03;;;;;;;14.03;7.70;;;;;;;17.82;98.96;95548.91;5062720;28;20224;-75
2023/09/09 05:37:30;;;;;;;16.00;8.20;;;;;;;17.71;99.53;95564.78;5045299;28;20693;-73
2023/09/09 05:39:56;;;;;;;14.27;8.10;;;;;;;17.86;98.19;95554.56;5052939;28;20311;-73
2023/09/09 05:42:22;;;;;;;14.00;8.93;;;;;;;17.89;98.29;95559.38;5033273;28;20671;-73
2023/09/09 05:44:48;;;;;;;20.40;9.27;;;;;;;17.80;99.10;95560.75;5037051;28;20753;-73
2023/09/09 05:47:13;;;;;;;17.30;8.77;;;;;;;17.72;99.68;95563.75;5037630;28;20228;-74
2023/09/09 05:49:39;;;;;;;15.07;8.90;;;;;;;17.90;98.46;95563.66;5050293;28;20244;-72
2023/09/09 05:52:05;;;;;;;17.03;9.40;;;;;;;17.93;98.64;95564.00;5064288;28;20224;-73
2023/09/09 05:54:30;;;;;;;18.87;8.97;;;;;;;18.13;97.53;95571.59;5038539;28;20221;-73
2023/09/09 05:56:56;;;;;;;15.37;8.23;;;;;;;18.20;96.77;95568.84;5042203;28;20304;-73
2023/09/09 05:59:21;;;;;;;18.87;8.33;;;;;;;18.26;96.43;95568.75;5066695;28;20259;-73
2023/09/09 06:01:47;;;;;;;15.57;8.47;;;;;;;18.17;96.80;95568.25;5038686;28;20313;-73
2023/09/09 06:04:15;;;;;;;18.77;9.63;;;;;;;18.27;96.55;95570.34;5068303;28;20267;-73
2023/09/09 06:06:41;;;;;;;17.40;9.90;;;;;;;18.23;96.71;95563.88;5053678;28;20221;-73
2023/09/09 06:09:06;;;;;;;19.43;10.67;;;;;;;18.31;95.97;95570.69;5055837;28;20241;-73
2023/09/09 06:11:32;;;;;;;18.07;10.10;;;;;;;18.46;95.13;95568.41;5047396;28;20234;-72
2023/09/09 06:13:57;;;;;;;17.30;9.43;;;;;;;18.45;95.73;95562.28;5064267;28;20236;-72
2023/09/09 06:16:23;;;;;;;13.67;8.57;;;;;;;18.47;95.73;95567.38;5055527;28;20228;-74
2023/09/09 06:18:49;;;;;;;14.90;8.93;;;;;;;18.48;95.80;95567.16;5047691;28;20327;-74
2023/09/09 06:21:14;;;;;;;17.27;9.07;;;;;;;18.52;95.06;95567.47;5046650;28;20232;-73
2023/09/09 06:23:40;;;;;;;14.70;8.43;;;;;;;18.59;95.01;95566.31;5053894;28;20224;-73
2023/09/09 06:26:05;;;;;;;16.87;8.17;;;;;;;18.67;94.89;95570.47;5030507;28;20229;-73
2023/09/09 06:28:31;;;;;;;15.53;8.00;;;;;;;18.64;95.09;95573.56;5036415;28;20236;-73
2023/09/09 06:30:56;;;;;;;11.83;7.97;;;;;;;18.78;94.24;95573.09;5037030;28;20228;-73
2023/09/09 06:33:22;;;;;;;14.67;8.10;;;;;;;18.78;93.97;95577.56;5045633;28;20220;-74
2023/09/09 06:35:50;;;;;;;14.40;7.60;;;;;;;18.84;93.74;95571.34;5040483;28;20285;-73
2023/09/09 06:38:21;;;;;;;14.17;7.20;;;;;;;18.74;93.72;95571.94;5032218;28;20381;-73
2023/09/09 06:40:47;;;;;;;14.30;7.33;;;;;;;18.85;93.36;95572.94;5031967;28;20297;-73
2023/09/09 06:43:16;;;;;;;14.73;7.63;;;;;;;18.97;92.37;95580.88;5019911;28;20718;-73
2023/09/09 06:45:42;;;;;;;14.27;8.07;;;;;;;19.08;91.57;95580.06;5062259;28;20236;-74
2023/09/09 06:48:07;;;;;;;15.47;8.13;;;;;;;19.20;91.67;95573.63;5016718;28;20248;-74
2023/09/09 06:50:33;;;;;;;17.60;7.80;;;;;;;19.27;91.56;95570.84;5036692;28;20258;-73
2023/09/09 06:52:58;;;;;;;14.70;7.60;;;;;;;19.36;92.13;95575.59;5044863;28;20247;-73
2023/09/09 06:55:24;;;;;;;15.33;8.00;;;;;;;19.30;91.71;95580.97;5068104;28;20273;-73
2023/09/09 06:57:49;;;;;;;11.90;7.27;;;;;;;19.41;92.05;95569.56;5050537;28;20235;-73
2023/09/09 07:00:16;;;;;;;17.40;7.90;;;;;;;19.39;91.32;95576.97;5062912;28;20337;-73
2023/09/09 07:02:41;;;;;;;14.63;7.93;;;;;;;19.65;90.59;95576.38;5048496;28;20227;-73
2023/09/09 07:05:07;;;;;;;15.13;8.40;;;;;;;19.57;90.22;95582.06;5055064;28;20296;-73
2023/09/09 07:07:33;;;;;;;13.77;8.30;;;;;;;19.64;89.65;95569.44;5052792;28;20228;-73
2023/09/09 07:09:58;;;;;;;15.03;8.33;;;;;;;19.63;89.76;95575.78;5047204;28;20220;-73
2023/09/09 07:12:24;;;;;;;13.63;8.30;;;;;;;19.74;89.33;95574.91;5052971;28;20227;-73
2023/09/09 07:14:49;;;;;;;15.40;7.97;;;;;;;19.87;88.08;95579.13;5038761;28;20323;-72
2023/09/09 07:17:15;;;;;;;15.23;8.93;;;;;;;19.88;87.94;95578.06;5040955;28;20229;-72
2023/09/09 07:19:40;;;;;;;15.33;8.63;;;;;;;19.98;87.32;95573.72;5052296;28;20678;-73
2023/09/09 07:22:06;;;;;;;16.57;8.97;;;;;;;20.12;86.27;95575.00;5054247;28;20452;-73
2023/09/09 07:24:32;;;;;;;19.27;8.20;;;;;;;20.18;85.56;95571.38;5034784;28;20258;-73
2023/09/09 07:26:59;;;;;;;12.57;8.00;;;;;;;20.28;83.67;95572.59;5069739;28;20732;-73
2023/09/09 07:29:24;;;;;;;12.53;7.50;;;;;;;20.29;81.43;95575.03;5050714;28;20239;-74
2023/09/09 07:31:50;;;;;;;12.90;6.87;;;;;;;20.36;80.66;95567.69;5069449;28;20229;-74
2023/09/09 07:34:16;;;;;;;11.23;6.93;;;;;;;20.45;79.67;95570.72;5064711;28;20780;-74
2023/09/09 07:36:41;;;;;;;13.57;7.20;;;;;;;20.53;79.66;95573.78;5035595;28;20245;-74
2023/09/09 07:39:07;;;;;;;12.73;6.60;;;;;;;20.71;78.77;95573.47;5066849;28;20629;-74
2023/09/09 07:41:32;;;;;;;10.73;5.77;;;;;;;20.83;75.60;95576.03;5052650;28;20227;-74
2023/09/09 07:43:58;;;;;;;10.07;5.60;;;;;;;20.99;73.85;95579.69;5073724;28;20276;-74
2023/09/09 07:46:23;;;;;;;9.70;5.60;;;;;;;20.96;73.68;95574.88;5058301;28;20281;-74
2023/09/09 07:48:49;;;;;;;9.93;5.43;;;;;;;21.03;72.63;95581.63;5071227;28;20232;-74
2023/09/09 07:51:14;;;;;;;11.50;5.30;;;;;;;21.09;72.42;95577.97;5059965;28;20220;-74
2023/09/09 07:53:40;;;;;;;8.87;4.63;;;;;;;21.29;68.13;95575.56;5054351;28;20243;-74
2023/09/09 07:56:08;;;;;;;11.13;4.80;;;;;;;21.23;68.15;95573.09;5054453;28;20278;-74
2023/09/09 07:58:33;;;;;;;10.53;4.43;;;;;;;21.25;68.64;95585.09;5046582;28;20228;-73
2023/09/09 08:01:05;;;;;;;6.40;4.10;;;;;;;21.39;62.39;95583.66;5052802;28;20255;-73
2023/09/09 08:03:31;;;;;;;7.27;4.17;;;;;;;21.34;65.22;95575.63;5073864;28;20252;-72
2023/09/09 08:06:06;;;;;;;9.85;4.43;;;;;;;21.45;65.64;95572.00;5067274;28;20894;-73
2023/09/09 08:08:32;;;;;;;8.23;4.40;;;;;;;21.62;64.24;95571.06;5044212;28;20667;-73
2023/09/09 08:10:57;;;;;;;7.07;4.30;;;;;;;21.59;64.25;95569.72;5046038;28;20237;-72
2023/09/09 08:13:24;;;;;;;10.82;5.00;;;;;;;21.71;63.96;95574.91;5061691;28;20741;-73
2023/09/09 08:15:49;;;;;;;8.32;4.55;;;;;;;21.78;64.03;95568.31;5048627;28;20228;-73
2023/09/09 08:18:15;;;;;;;8.35;4.20;;;;;;;21.81;63.34;95567.00;5069283;28;20227;-74
2023/09/09 08:20:41;;;;;;;7.88;4.20;;;;;;;21.91;59.91;95565.25;5067178;28;20216;-73
2023/09/09 08:23:07;;;;;;;6.10;3.90;;;;;;;21.96;58.69;95564.50;5056141;28;20256;-73
2023/09/09 08:25:33;;;;;;;5.35;3.70;;;;;;;21.95;58.88;95563.69;5041102;28;20224;-74
2023/09/09 08:28:01;;;;;;;8.00;3.90;;;;;;;22.02;59.93;95558.94;5045681;28;20691;-74
2023/09/09 08:30:27;;;;;;;7.43;3.57;;;;;;;22.30;56.52;95560.50;5051292;28;20740;-74
2023/09/09 08:32:53;;;;;;;5.63;3.40;;;;;;;22.23;55.32;95559.91;5039167;28;20279;-73
2023/09/09 08:35:18;;;;;;;8.73;3.70;;;;;;;22.30;56.74;95555.16;5051771;28;20237;-74
2023/09/09 08:37:44;;;;;;;9.50;3.58;;;;;;;22.33;55.70;95564.53;5044951;28;20675;-72
2023/09/09 08:40:10;;;;;;;7.43;3.65;;;;;;;22.25;57.56;95552.47;5045675;28;20251;-74
2023/09/09 08:42:41;;;;;;;8.68;3.85;;;;;;;22.54;55.27;95552.91;5069087;28;20315;-73
2023/09/09 08:45:09;;;;;;;5.82;3.20;;;;;;;22.70;53.42;95552.75;5070573;28;20239;-74
2023/09/09 08:47:35;;;;;;;5.28;3.47;;;;;;;22.72;53.73;95552.50;5071274;28;20239;-73
2023/09/09 08:50:01;;;;;;;6.78;3.30;;;;;;;22.87;50.67;95551.75;5037176;28;20622;-73
2023/09/09 08:52:29;;;;;;;5.20;2.90;;;;;;;23.01;48.03;95550.22;5029104;28;20237;-74
2023/09/09 08:54:55;;;;;;;6.00;3.30;;;;;;;23.09;49.17;95542.53;5050953;28;20233;-73
2023/09/09 08:57:21;;;;;;;8.45;3.10;;;;;;;23.12;49.36;95541.19;5054993;28;20286;-74
2023/09/09 08:59:47;;;;;;;11.00;3.30;;;;;;;23.34;49.50;95542.56;5071576;28;20237;-73
2023/09/09 09:02:12;;;;;;;4.70;3.35;;;;;;;23.39;50.78;95549.84;5056820;28;20228;-73
2023/09/09 09:04:38;;;;;;;5.50;3.35;;;;;;;23.46;47.18;95547.72;5055738;28;20676;-73
2023/09/09 09:07:05;;;;;;;4.30;3.10;;;;;;;23.57;45.74;95543.19;5054544;28;20705;-74
2023/09/09 09:09:30;;;;;;;6.38;3.08;;;;;;;23.51;47.30;95538.91;5069623;28;20236;-73
2023/09/09 09:12:00;;;;;;;7.55;3.40;;;;;;;23.53;45.88;95540.25;5035618;28;20244;-73
2023/09/09 09:14:25;;;;;;;5.70;3.20;;;;;;;23.60;45.04;95538.09;5036855;28;20237;-73
2023/09/09 09:16:51;;;;;;;7.18;3.20;;;;;;;23.73;44.98;95542.94;5049212;28;20233;-74
2023/09/09 09:19:18;;;;;;;7.03;3.30;;;;;;;23.86;46.00;95537.06;5071917;28;20221;-73
2023/09/09 09:21:43;;;;;;;5.85;3.30;;;;;;;23.86;45.48;95539.72;5052717;28;20236;-73
2023/09/09 09:24:09;;;;;;;7.97;3.03;;;;;;;24.08;44.35;95540.31;5050135;28;20236;-73
2023/09/09 09:26:34;;;;;;;7.15;3.10;;;;;;;24.19;44.93;95540.31;5039908;28;20275;-74
2023/09/09 09:29:06;;;;;;;5.53;3.20;;;;;;;24.22;42.91;95543.22;5046890;28;20228;-73
2023/09/09 09:31:32;;;;;;;5.30;2.88;;;;;;;24.16;44.17;95533.63;5055657;28;20613;-73
2023/09/09 09:33:59;;;;;;;5.28;3.25;;;;;;;24.15;42.27;95529.31;5053093;28;20311;-73
2023/09/09 09:36:25;;;;;;;4.85;3.00;;;;;;;24.19;42.65;95526.94;5036442;28;20839;-73
2023/09/09 09:38:51;;;;;;;7.70;3.35;;;;;;;24.36;42.09;95525.53;5070649;28;20734;-73
2023/09/09 09:41:16;;;;;;;4.35;2.90;;;;;;;24.40;41.84;95520.47;5047572;28;20286;-73
2023/09/09 09:43:42;;;;;;;5.32;2.97;;;;;;;24.47;40.34;95526.34;5047079;28;20228;-73
2023/09/09 09:46:20;;;;;;;3.65;2.75;;;;;;;24.42;39.25;95512.97;5055688;28;20224;-74
2023/09/09 09:48:46;;;;;;;5.65;3.00;;;;;;;24.49;41.54;95510.81;5053172;28;20311;-73
2023/09/09 09:51:11;;;;;;;3.95;2.95;;;;;;;24.63;39.94;95517.19;5057671;28;20228;-73
2023/09/09 09:53:53;;;;;;;4.03;3.10;;;;;;;24.61;39.80;95511.31;5050899;28;20661;-73
2023/09/09 09:56:19;;;;;;;6.68;2.80;;;;;;;24.67;40.29;95502.19;5049574;28;20305;-73
2023/09/09 09:58:46;;;;;;;5.47;3.08;;;;;;;24.67;39.69;95505.66;5049864;28;20262;-74
2023/09/09 10:01:11;;;;;;;4.30;2.85;;;;;;;24.67;40.46;95497.63;5066073;28;20232;-74
2023/09/09 10:03:58;;;;;;;7.88;3.10;;;;;;;24.57;38.48;95496.88;5064505;28;20220;-73
2023/09/09 10:06:28;;;;;;;3.80;2.67;;;;;;;24.88;39.98;95495.72;5038211;28;20289;-74
2023/09/09 10:09:23;;;;;;;5.82;2.80;;;;;;;25.01;38.19;95495.09;5042488;28;20235;-73
2023/09/09 10:11:53;;;;;;;5.20;2.60;;;;;;;25.24;38.11;95488.28;5061097;28;20360;-73
2023/09/09 10:14:18;;;;;;;4.72;2.75;;;;;;;25.34;37.01;95498.94;5037908;28;20791;-73
2023/09/09 10:16:43;;;;;;;5.35;2.40;;;;;;;25.27;35.98;95493.88;5054511;28;20226;-73
2023/09/09 10:19:12;;;;;;;3.92;2.55;;;;;;;25.17;34.64;95496.63;5033283;28;20232;-74
2023/09/09 10:21:37;;;;;;;4.35;2.63;;;;;;;25.09;36.13;95480.34;5041724;28;20250;-73
2023/09/09 10:24:03;;;;;;;4.97;2.55;;;;;;;25.19;35.21;95496.34;5044536;28;20229;-74
2023/09/09 10:26:29;;;;;;;6.18;2.58;;;;;;;25.15;34.83;95496.09;5037038;28;20255;-73
2023/09/09 10:28:54;;;;;;;5.90;2.60;;;;;;;25.09;36.54;95478.47;5068861;28;20623;-72
2023/09/09 10:31:20;;;;;;;4.07;2.65;;;;;;;25.42;34.68;95487.63;5030621;28;20245;-73
2023/09/09 10:33:47;;;;;;;4.30;2.65;;;;;;;25.51;33.73;95475.25;5051973;28;20238;-73
2023/09/09 10:36:14;;;;;;;3.83;2.67;;;;;;;25.51;33.63;95482.53;5049401;28;20312;-74
2023/09/09 10:38:39;;;;;;;3.45;2.35;;;;;;;25.72;34.09;95484.75;5068896;28;20259;-73
2023/09/09 10:41:04;;;;;;;3.90;2.70;;;;;;;25.60;33.60;95486.22;5058194;28;20233;-72
2023/09/09 10:43:30;;;;;;;5.93;2.45;;;;;;;25.56;34.01;95485.16;5066306;28;20233;-73
2023/09/09 10:45:55;;;;;;;5.75;2.58;;;;;;;25.35;32.77;95479.91;5032181;28;20283;-74
2023/09/09 10:48:21;;;;;;;4.53;2.42;;;;;;;25.56;34.38;95466.38;5071085;28;20281;-74
2023/09/09 10:50:50;;;;;;;6.13;2.58;;;;;;;25.70;34.71;95468.16;5034166;28;20247;-73
2023/09/09 10:53:25;;;;;;;5.20;2.90;;;;;;;25.85;33.01;95459.97;5051394;28;20229;-74
2023/09/09 10:55:53;;;;;;;10.73;2.80;;;;;;;26.05;33.13;95459.81;5060753;28;20234;-74
2023/09/09 10:58:19;;;;;;;7.72;2.67;;;;;;;26.20;34.09;95464.22;5042449;28;20717;-74
2023/09/09 11:00:46;;;;;;;6.03;2.60;;;;;;;26.33;33.56;95468.94;5066246;28;20319;-73
2023/09/09 11:03:14;;;;;;;4.45;2.60;;;;;;;26.19;31.71;95459.97;5049275;28;20251;-73
2023/09/09 11:05:59;;;;;;;5.80;2.50;;;;;;;26.32;32.18;95461.19;5050191;28;20216;-73
2023/09/09 11:08:44;;;;;;;5.20;2.50;;;;;;;26.38;33.22;95454.66;5050686;28;20615;-73
2023/09/09 11:11:16;;;;;;;7.93;2.65;;;;;;;26.47;33.83;95451.06;5047162;28;20226;-74
2023/09/09 11:13:54;;;;;;;4.82;2.40;;;;;;;26.28;33.17;95452.88;5066222;28;20229;-73
2023/09/09 11:16:35;;;;;;;4.95;2.60;;;;;;;26.23;32.14;95452.94;5069348;28;20225;-73
2023/09/09 11:19:04;;;;;;;5.22;2.30;;;;;;;26.22;32.40;95456.72;5067754;28;20232;-73
2023/09/09 11:21:34;;;;;;;6.82;2.53;;;;;;;26.22;32.51;95461.28;5051074;28;20241;-74
2023/09/09 11:23:59;;;;;;;5.47;2.30;;;;;;;26.27;32.09;95453.97;5034265;28;20242;-73